createdAt,value
2022-09-25T00:00:09.573Z,40.01
2022-09-25T00:00:40.959Z,40.25
2022-09-25T00:01:12.412Z,39.91
2022-09-25T00:01:43.922Z,40.03
2022-09-25T00:02:15.577Z,40.19
2022-09-25T00:02:47.154Z,40.12
2022-09-25T00:03:18.599Z,40.29
2022-09-25T00:03:49.996Z,40.03
2022-09-25T00:04:21.414Z,39.83
2022-09-25T00:04:52.829Z,40.18
2022-09-25T00:05:24.221Z,40.19
2022-09-25T00:05:55.613Z,39.74
2022-09-25T00:06:27.010Z,40.26
2022-09-25T00:06:58.406Z,39.72
2022-09-25T00:07:29.915Z,40.25
2022-09-25T00:08:01.326Z,40.00
2022-09-25T00:08:32.733Z,40.20
2022-09-25T00:09:06.773Z,40.22
2022-09-25T00:09:40.441Z,40.44
2022-09-25T00:10:11.841Z,40.00
2022-09-25T00:10:43.228Z,40.14
2022-09-25T00:11:14.695Z,40.66
2022-09-25T00:11:46.118Z,40.60
2022-09-25T00:12:17.515Z,40.33
2022-09-25T00:12:48.920Z,40.59
2022-09-25T00:13:20.314Z,40.03
2022-09-25T00:13:51.700Z,40.19
2022-09-25T00:14:23.085Z,39.93
2022-09-25T00:14:54.480Z,40.29
2022-09-25T00:15:25.891Z,40.47
2022-09-25T00:15:57.283Z,40.03
2022-09-25T00:16:28.831Z,39.87
2022-09-25T00:17:00.386Z,40.40
2022-09-25T00:17:31.852Z,40.32
2022-09-25T00:18:03.249Z,40.25
2022-09-25T00:18:34.641Z,40.25
2022-09-25T00:19:06.035Z,40.38
2022-09-25T00:19:37.514Z,40.17
2022-09-25T00:20:08.909Z,40.20
2022-09-25T00:20:40.314Z,40.54
2022-09-25T00:21:11.784Z,40.50
2022-09-25T00:21:43.181Z,40.07
2022-09-25T00:22:14.578Z,40.20
2022-09-25T00:22:45.960Z,40.27
2022-09-25T00:23:17.354Z,40.11
2022-09-25T00:23:48.762Z,39.99
2022-09-25T00:24:20.148Z,40.51
2022-09-25T00:24:51.556Z,40.26
2022-09-25T00:25:22.951Z,40.07
2022-09-25T00:25:54.345Z,40.21
2022-09-25T00:26:25.840Z,40.16
2022-09-25T00:26:57.234Z,40.28
2022-09-25T00:27:28.621Z,40.22
2022-09-25T00:28:00.009Z,40.48
2022-09-25T00:28:31.398Z,40.35
2022-09-25T00:29:02.789Z,40.56
2022-09-25T00:29:34.181Z,40.02
2022-09-25T00:30:05.568Z,40.30
2022-09-25T00:30:37.021Z,40.00
2022-09-25T00:31:08.550Z,40.19
2022-09-25T00:31:40.106Z,39.90
2022-09-25T00:32:11.509Z,40.41
2022-09-25T00:32:42.900Z,40.64
2022-09-25T00:33:14.296Z,40.29
2022-09-25T00:33:45.706Z,40.21
2022-09-25T00:34:17.112Z,40.74
2022-09-25T00:34:48.506Z,40.10
2022-09-25T00:35:19.894Z,40.15
2022-09-25T00:35:51.302Z,40.47
2022-09-25T00:36:22.696Z,40.69
2022-09-25T00:36:54.162Z,40.85
2022-09-25T00:37:25.562Z,40.61
2022-09-25T00:37:56.958Z,39.98
2022-09-25T00:38:28.357Z,40.34
2022-09-25T00:38:59.751Z,40.17
2022-09-25T00:39:31.144Z,40.13
2022-09-25T00:40:02.542Z,40.30
2022-09-25T00:40:34.034Z,40.33
2022-09-25T00:41:05.497Z,40.17
2022-09-25T00:41:36.908Z,40.44
2022-09-25T00:42:08.428Z,40.75
2022-09-25T00:42:39.817Z,40.47
2022-09-25T00:43:11.208Z,40.52
2022-09-25T00:43:42.602Z,40.60
2022-09-25T00:44:14.003Z,40.54
2022-09-25T00:44:45.405Z,40.46
2022-09-25T00:45:16.802Z,40.25
2022-09-25T00:45:48.229Z,40.48
2022-09-25T00:46:19.727Z,40.73
2022-09-25T00:46:51.124Z,40.33
2022-09-25T00:47:22.584Z,40.26
2022-09-25T00:47:53.974Z,40.79
2022-09-25T00:48:25.394Z,40.58
2022-09-25T00:48:56.786Z,40.15
2022-09-25T00:49:28.180Z,40.41
2022-09-25T00:49:59.581Z,40.61
2022-09-25T00:50:30.970Z,40.45
2022-09-25T00:51:02.369Z,40.31
2022-09-25T00:51:33.763Z,40.69
2022-09-25T00:52:05.168Z,40.35
2022-09-25T00:52:36.605Z,40.69
2022-09-25T00:53:07.994Z,40.11
2022-09-25T00:53:39.386Z,40.82
2022-09-25T00:54:10.934Z,40.54
2022-09-25T00:54:42.415Z,40.14
2022-09-25T00:55:13.810Z,40.71
2022-09-25T00:55:45.193Z,40.30
2022-09-25T00:56:16.581Z,40.41
2022-09-25T00:56:47.970Z,40.27
2022-09-25T00:57:19.361Z,40.46
2022-09-25T00:57:50.806Z,40.34
2022-09-25T00:58:22.203Z,40.46
2022-09-25T00:58:53.599Z,40.16
2022-09-25T00:59:25.005Z,40.67
2022-09-25T00:59:56.388Z,40.39
2022-09-25T01:00:27.811Z,40.19
2022-09-25T01:00:59.272Z,40.68
2022-09-25T01:01:30.753Z,40.25
2022-09-25T01:02:02.206Z,40.54
2022-09-25T01:02:33.783Z,40.74
2022-09-25T01:03:05.236Z,39.99
2022-09-25T01:03:36.645Z,40.12
2022-09-25T01:04:08.037Z,40.57
2022-09-25T01:04:39.433Z,40.38
2022-09-25T01:05:10.872Z,40.22
2022-09-25T01:05:42.391Z,40.55
2022-09-25T01:06:13.781Z,40.82
2022-09-25T01:06:45.186Z,40.21
2022-09-25T01:07:16.584Z,40.57
2022-09-25T01:07:48.117Z,40.75
2022-09-25T01:08:19.522Z,40.38
2022-09-25T01:08:50.927Z,40.59
2022-09-25T01:09:22.325Z,40.18
2022-09-25T01:09:53.714Z,40.49
2022-09-25T01:10:25.123Z,40.58
2022-09-25T01:10:56.519Z,40.34
2022-09-25T01:11:27.917Z,40.79
2022-09-25T01:11:59.315Z,40.23
2022-09-25T01:12:30.706Z,40.60
2022-09-25T01:13:02.171Z,40.44
2022-09-25T01:13:33.564Z,40.59
2022-09-25T01:14:04.963Z,40.66
2022-09-25T01:14:36.378Z,40.19
2022-09-25T01:15:07.765Z,40.52
2022-09-25T01:15:39.176Z,40.16
2022-09-25T01:16:10.602Z,40.47
2022-09-25T01:16:42.050Z,40.51
2022-09-25T01:17:13.468Z,40.47
2022-09-25T01:17:44.854Z,40.52
2022-09-25T01:18:16.310Z,40.20
2022-09-25T01:18:47.698Z,40.74
2022-09-25T01:19:19.084Z,40.78
2022-09-25T01:19:52.931Z,40.22
2022-09-25T01:20:24.568Z,40.17
2022-09-25T01:20:55.955Z,40.33
2022-09-25T01:21:27.344Z,40.25
2022-09-25T01:21:58.759Z,40.28
2022-09-25T01:22:30.149Z,40.63
2022-09-25T01:23:01.565Z,41.15
2022-09-25T01:23:33.053Z,40.62
2022-09-25T01:24:04.464Z,40.33
2022-09-25T01:24:35.857Z,40.62
2022-09-25T01:25:07.249Z,40.21
2022-09-25T01:25:38.635Z,40.69
2022-09-25T01:26:14.936Z,40.24
2022-09-25T01:26:47.097Z,40.53
2022-09-25T01:27:18.489Z,40.59
2022-09-25T01:27:49.879Z,40.73
2022-09-25T01:28:21.265Z,40.36
2022-09-25T01:28:52.741Z,40.54
2022-09-25T01:29:24.145Z,40.48
2022-09-25T01:29:55.547Z,40.31
2022-09-25T01:30:27.029Z,40.61
2022-09-25T01:30:58.478Z,40.81
2022-09-25T01:31:29.924Z,40.44
2022-09-25T01:32:01.327Z,40.65
2022-09-25T01:32:32.806Z,40.60
2022-09-25T01:33:04.212Z,40.38
2022-09-25T01:33:35.601Z,40.55
2022-09-25T01:34:07.108Z,40.36
2022-09-25T01:34:38.491Z,40.40
2022-09-25T01:35:09.882Z,40.62
2022-09-25T01:35:41.269Z,40.58
2022-09-25T01:36:12.672Z,40.68
2022-09-25T01:36:44.065Z,40.29
2022-09-25T01:37:15.473Z,40.41
2022-09-25T01:37:46.873Z,40.55
2022-09-25T01:38:18.281Z,40.54
2022-09-25T01:38:49.674Z,40.60
2022-09-25T01:39:21.192Z,40.51
2022-09-25T01:39:52.588Z,40.71
2022-09-25T01:40:24.035Z,40.47
2022-09-25T01:40:55.556Z,40.49
2022-09-25T01:41:27.074Z,40.55
2022-09-25T01:41:58.468Z,40.38
2022-09-25T01:42:29.857Z,40.78
2022-09-25T01:43:01.248Z,40.94
2022-09-25T01:43:32.659Z,40.47
2022-09-25T01:44:04.150Z,40.71
2022-09-25T01:44:35.761Z,40.42
2022-09-25T01:45:07.150Z,40.48
2022-09-25T01:45:38.652Z,40.91
2022-09-25T01:46:10.212Z,40.83
2022-09-25T01:46:41.673Z,40.66
2022-09-25T01:47:13.070Z,40.52
2022-09-25T01:47:44.458Z,40.77
2022-09-25T01:48:15.846Z,40.54
2022-09-25T01:48:47.259Z,40.70
2022-09-25T01:49:18.644Z,40.54
2022-09-25T01:49:50.110Z,40.79
2022-09-25T01:50:21.503Z,40.66
2022-09-25T01:50:52.918Z,40.28
2022-09-25T01:51:24.310Z,40.68
2022-09-25T01:51:56.018Z,40.80
2022-09-25T01:52:27.538Z,40.49
2022-09-25T01:52:58.946Z,40.91
2022-09-25T01:53:30.339Z,40.42
2022-09-25T01:54:01.733Z,40.46
2022-09-25T01:54:33.161Z,40.67
2022-09-25T01:55:04.545Z,40.69
2022-09-25T01:55:35.963Z,40.74
2022-09-25T01:56:07.361Z,40.43
2022-09-25T01:56:38.753Z,40.53
2022-09-25T01:57:10.159Z,40.83
2022-09-25T01:57:41.560Z,40.76
2022-09-25T01:58:12.958Z,40.84
2022-09-25T01:58:44.368Z,40.82
2022-09-25T01:59:15.753Z,40.47
2022-09-25T01:59:47.201Z,40.92
2022-09-25T02:00:18.592Z,40.74
2022-09-25T02:00:49.991Z,40.71
2022-09-25T02:01:21.437Z,40.66
2022-09-25T02:01:52.901Z,40.49
2022-09-25T02:02:24.421Z,40.89
2022-09-25T02:02:55.856Z,41.07
2022-09-25T02:03:27.273Z,41.05
2022-09-25T02:03:58.663Z,41.07
2022-09-25T02:04:30.057Z,40.62
2022-09-25T02:05:01.585Z,40.73
2022-09-25T02:05:32.978Z,41.04
2022-09-25T02:06:04.369Z,40.79
2022-09-25T02:06:35.821Z,40.85
2022-09-25T02:07:07.216Z,41.00
2022-09-25T02:07:38.610Z,41.00
2022-09-25T02:08:10.007Z,40.59
2022-09-25T02:08:41.402Z,40.64
2022-09-25T02:09:12.799Z,40.73
2022-09-25T02:09:44.219Z,40.92
2022-09-25T02:10:15.752Z,41.08
2022-09-25T02:10:47.143Z,40.54
2022-09-25T02:11:18.533Z,40.52
2022-09-25T02:11:49.921Z,41.13
2022-09-25T02:12:21.324Z,40.78
2022-09-25T02:12:52.723Z,40.95
2022-09-25T02:13:24.145Z,41.08
2022-09-25T02:13:55.549Z,40.89
2022-09-25T02:14:26.943Z,40.88
2022-09-25T02:14:58.334Z,41.03
2022-09-25T02:15:29.806Z,41.01
2022-09-25T02:16:01.196Z,40.62
2022-09-25T02:16:32.606Z,40.80
2022-09-25T02:17:04.091Z,40.67
2022-09-25T02:17:35.541Z,40.78
2022-09-25T02:18:06.933Z,40.77
2022-09-25T02:18:38.479Z,40.75
2022-09-25T02:19:09.881Z,41.11
2022-09-25T02:19:41.289Z,41.06
2022-09-25T02:20:12.704Z,40.63
2022-09-25T02:20:44.276Z,40.88
2022-09-25T02:21:15.659Z,41.00
2022-09-25T02:21:47.092Z,40.88
2022-09-25T02:22:18.490Z,41.12
2022-09-25T02:22:49.986Z,40.67
2022-09-25T02:23:21.374Z,41.32
2022-09-25T02:23:52.756Z,41.23
2022-09-25T02:24:24.140Z,40.80
2022-09-25T02:24:58.930Z,40.94
2022-09-25T02:25:30.884Z,40.88
2022-09-25T02:26:02.409Z,40.92
2022-09-25T02:26:33.802Z,40.97
2022-09-25T02:27:05.202Z,40.66
2022-09-25T02:27:36.596Z,41.07
2022-09-25T02:28:08.006Z,41.20
2022-09-25T02:28:39.562Z,41.16
2022-09-25T02:29:10.953Z,40.83
2022-09-25T02:29:42.346Z,40.88
2022-09-25T02:30:13.749Z,40.89
2022-09-25T02:30:45.207Z,40.95
2022-09-25T02:31:16.771Z,40.66
2022-09-25T02:31:48.217Z,41.18
2022-09-25T02:32:19.630Z,40.98
2022-09-25T02:32:51.021Z,40.97
2022-09-25T02:33:22.417Z,40.64
2022-09-25T02:33:53.807Z,40.89
2022-09-25T02:34:25.205Z,41.24
2022-09-25T02:34:56.597Z,40.74
2022-09-25T02:35:27.988Z,41.30
2022-09-25T02:35:59.377Z,41.19
2022-09-25T02:36:30.810Z,41.36
2022-09-25T02:37:02.218Z,40.66
2022-09-25T02:37:33.674Z,41.00
2022-09-25T02:38:05.081Z,40.80
2022-09-25T02:38:36.487Z,41.03
2022-09-25T02:39:07.878Z,40.84
2022-09-25T02:39:39.288Z,40.81
2022-09-25T02:40:10.725Z,41.14
2022-09-25T02:40:42.280Z,41.38
2022-09-25T02:41:13.797Z,41.32
2022-09-25T02:41:45.208Z,41.12
2022-09-25T02:42:16.602Z,41.01
2022-09-25T02:42:48.009Z,41.25
2022-09-25T02:43:19.400Z,40.82
2022-09-25T02:43:50.794Z,41.14
2022-09-25T02:44:22.197Z,41.19
2022-09-25T02:44:53.607Z,41.05
2022-09-25T02:45:25.017Z,40.97
2022-09-25T02:45:56.490Z,41.07
2022-09-25T02:46:28.092Z,41.00
2022-09-25T02:46:59.524Z,40.94
2022-09-25T02:47:30.915Z,41.08
2022-09-25T02:48:02.303Z,41.28
2022-09-25T02:48:33.710Z,41.40
2022-09-25T02:49:05.108Z,41.30
2022-09-25T02:49:36.513Z,41.34
2022-09-25T02:50:07.904Z,40.67
2022-09-25T02:50:39.309Z,41.13
2022-09-25T02:51:10.699Z,40.85
2022-09-25T02:51:42.202Z,40.82
2022-09-25T02:52:13.589Z,40.78
2022-09-25T02:52:45.010Z,41.12
2022-09-25T02:53:16.405Z,41.17
2022-09-25T02:53:47.797Z,40.78
2022-09-25T02:54:19.185Z,40.86
2022-09-25T02:54:50.580Z,41.23
2022-09-25T02:55:21.995Z,41.14
2022-09-25T02:55:53.385Z,41.48
2022-09-25T02:56:24.776Z,41.39
2022-09-25T02:57:01.383Z,41.15
2022-09-25T02:57:35.051Z,40.99
2022-09-25T02:58:06.461Z,41.11
2022-09-25T02:58:37.870Z,41.36
2022-09-25T02:59:09.292Z,40.76
2022-09-25T02:59:40.683Z,40.85
2022-09-25T03:00:12.157Z,41.11
2022-09-25T03:00:43.549Z,41.03
2022-09-25T03:01:14.989Z,40.91
2022-09-25T03:01:46.491Z,41.25
2022-09-25T03:02:18.035Z,41.09
2022-09-25T03:02:52.449Z,41.42
2022-09-25T03:03:24.104Z,41.22
2022-09-25T03:03:55.494Z,41.49
2022-09-25T03:04:26.892Z,41.42
2022-09-25T03:04:58.287Z,41.14
2022-09-25T03:05:29.685Z,41.21
2022-09-25T03:06:01.075Z,40.92
2022-09-25T03:06:32.471Z,40.91
2022-09-25T03:07:03.862Z,40.88
2022-09-25T03:07:35.339Z,41.24
2022-09-25T03:08:06.742Z,41.42
2022-09-25T03:08:38.146Z,41.13
2022-09-25T03:09:09.541Z,41.47
2022-09-25T03:09:40.951Z,41.16
2022-09-25T03:10:12.357Z,41.24
2022-09-25T03:10:43.745Z,41.00
2022-09-25T03:11:15.144Z,41.05
2022-09-25T03:11:46.541Z,40.97
2022-09-25T03:12:17.933Z,41.08
2022-09-25T03:12:49.408Z,41.25
2022-09-25T03:13:20.812Z,41.50
2022-09-25T03:13:52.206Z,41.43
2022-09-25T03:14:23.602Z,41.26
2022-09-25T03:14:54.993Z,40.95
2022-09-25T03:15:26.394Z,40.80
2022-09-25T03:15:57.829Z,41.12
2022-09-25T03:16:29.372Z,40.98
2022-09-25T03:17:00.794Z,40.97
2022-09-25T03:17:32.237Z,41.25
2022-09-25T03:18:03.671Z,41.24
2022-09-25T03:18:35.065Z,41.54
2022-09-25T03:19:06.453Z,41.37
2022-09-25T03:19:37.857Z,41.18
2022-09-25T03:20:09.247Z,41.23
2022-09-25T03:20:40.657Z,41.31
2022-09-25T03:21:12.048Z,41.26
2022-09-25T03:21:43.440Z,41.44
2022-09-25T03:22:14.828Z,41.45
2022-09-25T03:22:46.226Z,41.11
2022-09-25T03:23:17.637Z,41.25
2022-09-25T03:23:49.020Z,41.61
2022-09-25T03:24:20.431Z,40.68
2022-09-25T03:24:51.867Z,41.50
2022-09-25T03:25:23.262Z,41.36
2022-09-25T03:25:54.651Z,41.70
2022-09-25T03:26:26.044Z,41.10
2022-09-25T03:26:57.583Z,41.32
2022-09-25T03:27:28.971Z,41.24
2022-09-25T03:28:00.359Z,41.11
2022-09-25T03:28:31.884Z,41.42
2022-09-25T03:29:03.273Z,41.33
2022-09-25T03:29:34.667Z,41.28
2022-09-25T03:30:06.058Z,41.27
2022-09-25T03:30:37.514Z,41.40
2022-09-25T03:31:08.943Z,41.58
2022-09-25T03:31:40.536Z,41.00
2022-09-25T03:32:11.956Z,41.10
2022-09-25T03:32:43.363Z,41.36
2022-09-25T03:33:14.817Z,41.25
2022-09-25T03:33:46.234Z,41.28
2022-09-25T03:34:17.624Z,41.06
2022-09-25T03:34:49.018Z,41.56
2022-09-25T03:35:20.409Z,41.11
2022-09-25T03:35:51.793Z,41.31
2022-09-25T03:36:23.178Z,41.04
2022-09-25T03:36:54.569Z,41.48
2022-09-25T03:37:25.973Z,41.75
2022-09-25T03:37:57.388Z,41.12
2022-09-25T03:38:28.795Z,41.54
2022-09-25T03:39:00.236Z,41.36
2022-09-25T03:39:31.631Z,41.09
2022-09-25T03:40:03.038Z,41.35
2022-09-25T03:40:34.488Z,41.32
2022-09-25T03:41:05.937Z,41.16
2022-09-25T03:41:37.333Z,41.22
2022-09-25T03:42:08.755Z,41.33
2022-09-25T03:42:40.147Z,41.62
2022-09-25T03:43:41.801Z,41.44
2022-09-25T03:44:13.285Z,41.23
2022-09-25T03:44:44.705Z,41.42
2022-09-25T03:45:16.125Z,41.49
2022-09-25T03:45:47.598Z,41.69
2022-09-25T03:46:19.073Z,40.85
2022-09-25T03:46:50.498Z,41.58
2022-09-25T03:47:21.893Z,41.69
2022-09-25T03:47:53.295Z,41.23
2022-09-25T03:48:24.739Z,41.64
2022-09-25T03:48:56.146Z,41.71
2022-09-25T03:49:27.601Z,41.49
2022-09-25T03:49:59.002Z,41.64
2022-09-25T03:50:30.396Z,41.18
2022-09-25T03:51:01.809Z,41.64
2022-09-25T03:51:33.202Z,41.59
2022-09-25T03:52:04.601Z,41.49
2022-09-25T03:52:35.993Z,41.16
2022-09-25T03:53:07.436Z,41.54
2022-09-25T03:53:38.829Z,41.65
2022-09-25T03:54:10.289Z,41.60
2022-09-25T03:54:41.752Z,41.47
2022-09-25T03:55:13.134Z,41.39
2022-09-25T03:55:44.520Z,41.26
2022-09-25T03:56:15.911Z,41.47
2022-09-25T03:56:47.301Z,41.45
2022-09-25T03:57:18.715Z,41.71
2022-09-25T03:57:50.122Z,41.60
2022-09-25T03:58:21.621Z,41.19
2022-09-25T03:58:53.104Z,41.32
2022-09-25T03:59:24.500Z,41.65
2022-09-25T03:59:55.890Z,41.35
2022-09-25T04:00:27.287Z,41.46
2022-09-25T04:00:58.757Z,41.61
2022-09-25T04:01:30.285Z,41.69
2022-09-25T04:02:01.879Z,41.69
2022-09-25T04:02:33.450Z,41.53
2022-09-25T04:03:04.891Z,41.58
2022-09-25T04:03:36.391Z,41.72
2022-09-25T04:04:07.787Z,41.51
2022-09-25T04:04:39.179Z,41.53
2022-09-25T04:05:10.574Z,41.73
2022-09-25T04:05:41.987Z,41.51
2022-09-25T04:06:13.416Z,41.73
2022-09-25T04:06:44.833Z,41.69
2022-09-25T04:07:16.228Z,41.66
2022-09-25T04:07:47.628Z,41.43
2022-09-25T04:08:19.016Z,41.73
2022-09-25T04:08:50.474Z,41.85
2022-09-25T04:09:21.860Z,41.47
2022-09-25T04:09:53.252Z,41.44
2022-09-25T04:10:24.648Z,41.76
2022-09-25T04:10:56.049Z,41.34
2022-09-25T04:11:27.443Z,41.58
2022-09-25T04:11:58.836Z,41.30
2022-09-25T04:12:30.225Z,41.55
2022-09-25T04:13:01.616Z,41.42
2022-09-25T04:13:33.009Z,41.93
2022-09-25T04:14:04.525Z,41.58
2022-09-25T04:14:35.937Z,41.61
2022-09-25T04:15:07.329Z,41.27
2022-09-25T04:15:38.721Z,41.08
2022-09-25T04:16:10.165Z,41.37
2022-09-25T04:16:41.663Z,41.87
2022-09-25T04:17:13.232Z,41.92
2022-09-25T04:17:44.627Z,41.71
2022-09-25T04:18:16.213Z,41.41
2022-09-25T04:18:47.632Z,41.84
2022-09-25T04:19:19.017Z,41.51
2022-09-25T04:19:50.409Z,41.28
2022-09-25T04:20:21.823Z,41.63
2022-09-25T04:20:53.238Z,41.93
2022-09-25T04:21:24.634Z,41.70
2022-09-25T04:21:56.023Z,41.96
2022-09-25T04:22:27.511Z,41.82
2022-09-25T04:22:58.896Z,41.40
2022-09-25T04:23:30.285Z,41.68
2022-09-25T04:24:01.673Z,41.81
2022-09-25T04:24:33.082Z,41.28
2022-09-25T04:25:04.469Z,41.58
2022-09-25T04:25:35.866Z,41.87
2022-09-25T04:26:07.274Z,41.81
2022-09-25T04:26:38.683Z,41.73
2022-09-25T04:27:10.094Z,41.57
2022-09-25T04:27:41.561Z,41.74
2022-09-25T04:28:12.957Z,41.59
2022-09-25T04:28:44.350Z,41.90
2022-09-25T04:29:15.737Z,41.65
2022-09-25T04:29:47.133Z,41.89
2022-09-25T04:30:18.539Z,42.01
2022-09-25T04:30:49.931Z,42.21
2022-09-25T04:31:21.384Z,41.84
2022-09-25T04:31:52.812Z,41.57
2022-09-25T04:32:24.222Z,41.38
2022-09-25T04:32:55.729Z,42.07
2022-09-25T04:33:27.114Z,41.73
2022-09-25T04:33:58.512Z,42.35
2022-09-25T04:34:29.898Z,42.26
2022-09-25T04:35:01.288Z,41.80
2022-09-25T04:35:32.766Z,42.14
2022-09-25T04:36:04.156Z,41.77
2022-09-25T04:36:35.557Z,42.05
2022-09-25T04:37:06.957Z,42.00
2022-09-25T04:37:38.353Z,41.94
2022-09-25T04:38:09.813Z,41.86
2022-09-25T04:38:41.201Z,42.19
2022-09-25T04:39:12.589Z,42.05
2022-09-25T04:39:43.978Z,42.00
2022-09-25T04:40:15.420Z,41.74
2022-09-25T04:40:46.887Z,41.99
2022-09-25T04:41:18.313Z,42.16
2022-09-25T04:41:49.701Z,42.29
2022-09-25T04:42:21.089Z,42.45
2022-09-25T04:42:52.617Z,41.79
2022-09-25T04:43:24.035Z,42.08
2022-09-25T04:43:55.433Z,42.05
2022-09-25T04:44:26.972Z,41.81
2022-09-25T04:44:58.407Z,41.87
2022-09-25T04:45:29.908Z,41.88
2022-09-25T04:46:01.423Z,41.88
2022-09-25T04:46:32.967Z,41.58
2022-09-25T04:47:04.398Z,41.61
2022-09-25T04:47:35.790Z,42.23
2022-09-25T04:48:07.292Z,42.08
2022-09-25T04:48:38.683Z,41.66
2022-09-25T04:49:10.087Z,41.85
2022-09-25T04:49:41.508Z,41.92
2022-09-25T04:50:12.912Z,42.15
2022-09-25T04:50:44.307Z,41.72
2022-09-25T04:51:15.706Z,41.59
2022-09-25T04:51:47.095Z,41.87
2022-09-25T04:52:18.520Z,42.19
2022-09-25T04:52:49.910Z,41.93
2022-09-25T04:53:21.449Z,41.95
2022-09-25T04:53:52.847Z,41.62
2022-09-25T04:54:24.247Z,41.79
2022-09-25T04:54:55.643Z,41.86
2022-09-25T04:55:27.034Z,42.06
2022-09-25T04:55:58.428Z,41.61
2022-09-25T04:56:29.819Z,41.65
2022-09-25T04:57:01.228Z,41.45
2022-09-25T04:57:57.281Z,42.16
2022-09-25T04:58:24.060Z,41.88
2022-09-25T04:58:55.452Z,41.67
2022-09-25T04:59:26.858Z,41.72
2022-09-25T04:59:58.254Z,42.14
2022-09-25T05:00:29.667Z,41.78
2022-09-25T05:01:01.103Z,41.62
2022-09-25T05:01:32.653Z,41.78
2022-09-25T05:02:04.414Z,41.84
2022-09-25T05:02:36.218Z,41.74
2022-09-25T05:03:08.013Z,41.70
2022-09-25T05:03:39.532Z,41.41
2022-09-25T05:04:11.111Z,41.48
2022-09-25T05:04:42.593Z,42.09
2022-09-25T05:05:14.005Z,42.02
2022-09-25T05:05:45.391Z,42.00
2022-09-25T05:06:16.783Z,41.92
2022-09-25T05:06:48.179Z,41.69
2022-09-25T05:07:19.588Z,42.04
2022-09-25T05:07:50.973Z,41.88
2022-09-25T05:08:22.503Z,41.52
2022-09-25T05:08:53.908Z,41.71
2022-09-25T05:09:25.297Z,41.60
2022-09-25T05:09:56.727Z,41.50
2022-09-25T05:10:28.117Z,41.99
2022-09-25T05:10:59.510Z,41.79
2022-09-25T05:11:30.905Z,41.74
2022-09-25T05:12:02.285Z,41.40
2022-09-25T05:12:33.689Z,42.08
2022-09-25T05:13:05.079Z,41.95
2022-09-25T05:13:36.521Z,41.86
2022-09-25T05:14:07.909Z,42.05
2022-09-25T05:14:39.321Z,41.79
2022-09-25T05:15:10.709Z,41.95
2022-09-25T05:15:42.093Z,41.59
2022-09-25T05:16:13.646Z,41.72
2022-09-25T05:16:45.133Z,41.77
2022-09-25T05:17:16.542Z,41.97
2022-09-25T05:17:47.949Z,41.65
2022-09-25T05:18:19.348Z,41.71
2022-09-25T05:18:50.805Z,42.03
2022-09-25T05:19:22.190Z,41.55
2022-09-25T05:19:53.596Z,41.61
2022-09-25T05:20:24.986Z,41.79
2022-09-25T05:20:56.372Z,41.69
2022-09-25T05:21:27.768Z,41.59
2022-09-25T05:21:59.157Z,41.37
2022-09-25T05:22:30.545Z,41.93
2022-09-25T05:23:01.946Z,41.88
2022-09-25T05:23:33.337Z,41.67
2022-09-25T05:24:04.863Z,41.33
2022-09-25T05:24:36.337Z,41.42
2022-09-25T05:25:07.728Z,41.59
2022-09-25T05:25:39.113Z,41.73
2022-09-25T05:26:10.610Z,41.79
2022-09-25T05:26:42.012Z,41.85
2022-09-25T05:27:13.417Z,41.38
2022-09-25T05:27:44.814Z,41.93
2022-09-25T05:28:16.201Z,41.30
2022-09-25T05:28:47.594Z,41.45
2022-09-25T05:29:19.111Z,42.14
2022-09-25T05:29:50.514Z,41.67
2022-09-25T05:30:21.901Z,41.85
2022-09-25T05:30:53.379Z,41.82
2022-09-25T05:31:24.812Z,41.83
2022-09-25T05:31:56.218Z,41.90
2022-09-25T05:32:27.625Z,41.22
2022-09-25T05:32:59.008Z,41.37
2022-09-25T05:33:30.403Z,41.83
2022-09-25T05:34:01.805Z,41.52
2022-09-25T05:34:33.289Z,41.64
2022-09-25T05:35:04.674Z,41.37
2022-09-25T05:35:36.092Z,41.36
2022-09-25T05:36:07.512Z,41.36
2022-09-25T05:36:38.914Z,41.64
2022-09-25T05:37:10.305Z,41.94
2022-09-25T05:37:41.712Z,41.63
2022-09-25T05:38:13.099Z,41.72
2022-09-25T05:38:44.514Z,41.62
2022-09-25T05:39:15.906Z,41.79
2022-09-25T05:39:47.507Z,41.44
2022-09-25T05:40:18.940Z,41.87
2022-09-25T05:40:50.444Z,41.60
2022-09-25T05:41:21.889Z,41.76
2022-09-25T05:41:53.292Z,41.71
2022-09-25T05:42:24.687Z,41.66
2022-09-25T05:42:56.076Z,41.51
2022-09-25T05:43:27.473Z,41.61
2022-09-25T05:43:58.897Z,41.45
2022-09-25T05:44:30.296Z,41.88
2022-09-25T05:45:07.233Z,41.97
2022-09-25T05:45:38.998Z,41.31
2022-09-25T05:46:10.480Z,41.62
2022-09-25T05:46:42.001Z,41.56
2022-09-25T05:47:13.412Z,41.65
2022-09-25T05:47:44.799Z,41.55
2022-09-25T05:48:16.179Z,41.61
2022-09-25T05:48:47.705Z,41.70
2022-09-25T05:49:19.102Z,41.98
2022-09-25T05:49:50.497Z,41.65
2022-09-25T05:50:21.886Z,41.61
2022-09-25T05:50:53.278Z,41.51
2022-09-25T05:51:24.695Z,41.89
2022-09-25T05:51:56.089Z,41.88
2022-09-25T05:52:27.510Z,41.77
2022-09-25T05:52:59.000Z,42.09
2022-09-25T05:53:30.388Z,41.67
2022-09-25T05:54:01.788Z,41.46
2022-09-25T05:54:33.173Z,41.31
2022-09-25T05:55:04.559Z,41.82
2022-09-25T05:55:35.945Z,41.26
2022-09-25T05:56:07.522Z,41.53
2022-09-25T05:56:38.946Z,41.40
2022-09-25T05:57:10.332Z,42.06
2022-09-25T05:57:41.728Z,41.92
2022-09-25T05:58:13.127Z,41.77
2022-09-25T05:58:44.534Z,41.80
2022-09-25T05:59:15.931Z,41.52
2022-09-25T05:59:47.323Z,41.76
2022-09-25T06:00:18.722Z,42.08
2022-09-25T06:00:50.168Z,41.87
2022-09-25T06:01:21.643Z,41.85
2022-09-25T06:01:53.090Z,42.00
2022-09-25T06:02:24.585Z,42.13
2022-09-25T06:02:56.055Z,42.20
2022-09-25T06:03:27.617Z,42.16
2022-09-25T06:03:59.035Z,42.27
2022-09-25T06:04:30.450Z,42.30
2022-09-25T06:05:01.865Z,42.20
2022-09-25T06:05:33.259Z,41.92
2022-09-25T06:06:04.657Z,41.75
2022-09-25T06:06:36.042Z,41.99
2022-09-25T06:07:07.432Z,42.02
2022-09-25T06:07:38.812Z,42.05
2022-09-25T06:08:10.229Z,41.79
2022-09-25T06:08:41.642Z,41.88
2022-09-25T06:09:13.041Z,42.21
2022-09-25T06:09:44.451Z,42.21
2022-09-25T06:10:15.856Z,41.88
2022-09-25T06:10:47.297Z,42.11
2022-09-25T06:11:18.681Z,41.65
2022-09-25T06:11:50.097Z,41.92
2022-09-25T06:12:21.486Z,41.65
2022-09-25T06:12:52.879Z,41.61
2022-09-25T06:13:24.301Z,41.69
2022-09-25T06:13:55.733Z,41.55
2022-09-25T06:14:27.129Z,41.86
2022-09-25T06:14:58.520Z,41.97
2022-09-25T06:15:29.912Z,41.81
2022-09-25T06:16:01.363Z,42.31
2022-09-25T06:16:32.866Z,41.87
2022-09-25T06:17:04.367Z,41.87
2022-09-25T06:17:35.762Z,42.09
2022-09-25T06:18:07.166Z,41.96
2022-09-25T06:18:38.588Z,42.41
2022-09-25T06:19:10.107Z,42.43
2022-09-25T06:19:41.513Z,42.04
2022-09-25T06:20:16.113Z,41.87
2022-09-25T06:20:47.793Z,41.99
2022-09-25T06:21:19.188Z,42.00
2022-09-25T06:21:50.641Z,41.89
2022-09-25T06:22:22.040Z,41.91
2022-09-25T06:22:53.426Z,41.70
2022-09-25T06:23:24.808Z,41.95
2022-09-25T06:23:56.202Z,41.73
2022-09-25T06:24:27.633Z,41.70
2022-09-25T06:24:59.020Z,41.87
2022-09-25T06:25:30.458Z,41.85
2022-09-25T06:26:01.858Z,41.95
2022-09-25T06:26:33.265Z,42.31
2022-09-25T06:27:04.656Z,42.16
2022-09-25T06:27:36.065Z,41.88
2022-09-25T06:28:07.449Z,41.72
2022-09-25T06:28:38.855Z,42.19
2022-09-25T06:29:10.283Z,42.39
2022-09-25T06:29:41.813Z,42.17
2022-09-25T06:30:13.207Z,42.39
2022-09-25T06:30:44.608Z,42.26
2022-09-25T06:31:16.037Z,42.19
2022-09-25T06:31:47.514Z,42.03
2022-09-25T06:32:18.969Z,42.16
2022-09-25T06:32:50.362Z,42.10
2022-09-25T06:33:21.762Z,42.09
2022-09-25T06:33:53.159Z,42.12
2022-09-25T06:34:24.562Z,42.10
2022-09-25T06:34:56.079Z,41.92
2022-09-25T06:35:27.477Z,42.13
2022-09-25T06:35:58.885Z,42.14
2022-09-25T06:36:30.282Z,42.04
2022-09-25T06:37:01.671Z,41.87
2022-09-25T06:37:33.081Z,41.77
2022-09-25T06:38:04.495Z,42.48
2022-09-25T06:38:35.889Z,42.17
2022-09-25T06:39:07.277Z,42.53
2022-09-25T06:39:38.670Z,42.26
2022-09-25T06:40:10.156Z,42.04
2022-09-25T06:40:41.964Z,42.24
2022-09-25T06:41:13.517Z,42.34
2022-09-25T06:41:44.910Z,42.25
2022-09-25T06:42:16.318Z,42.34
2022-09-25T06:42:47.709Z,42.56
2022-09-25T06:43:19.098Z,42.29
2022-09-25T06:43:50.486Z,42.71
2022-09-25T06:44:21.885Z,42.26
2022-09-25T06:44:53.370Z,42.04
2022-09-25T06:45:24.772Z,42.55
2022-09-25T06:45:56.205Z,42.50